Decoded Metar for KELM (ELMIRA in NY, USA) (IATA:ELM) | Meteo·Mobile Aviation Weather
aviador You're here:

KELM Decoded Metar

ELMIRA in NY, USA
Report Time2018-11-18 18:12:00
UTC Time2018-11-18 18:24:05
Flight Rules mvfr MVFR
Wind010° at 05 kt
W.Decomp.*RWY 05: 4.4 kt HW 2.3 kt LCW
RWY 06: 3.9 kt HW 3.1 kt LCW
RWY 10: 1.0 kt HW 4.9 kt LCW
W.Rank010° ranks 17
Current wind is below 010° avg. (6.9)
Visibility4828 m
Phenomena:Light Snow
Clouds:Overcast 029 Hf
Expected CloudBase > 1,600 ft AGL from Temp-Dew spread
Ceiling2,900 ft
Temp02°C (ISA -11)
Dew Point-2°C (75% RH)
AAT-2.1°C
QNH1024 hPa
Density Alt-646 ft
Elevation991 ft
Report Wrong Elevation
Raw Report
KELM 181812Z 01005KT 3SM -SN OVC029 02/M02 A3023 RMK AO2 SNB03
P0000 T00171017=

Extra information for KELM:More info

Metar Taf Metar & Taf Last 4 Metars F.Rules Stats Wind Profile Meteogram Temp Stats Airport Information Weather charts Add Link Nearby VenuesMetar ALERT Operation Metar Decoded Social comments

AIRNAV info for KELM